sensor_id;sensor_type;location;lat;lon;timestamp;pressure;altitude;pressure_sealevel;temperature;humidity
63306;BME280;50735;52.060;1.248;2023-02-23T00:01:34;101107.96;;;6.80;53.83
63306;BME280;50735;52.060;1.248;2023-02-23T00:04:01;101109.42;;;6.84;53.79
63306;BME280;50735;52.060;1.248;2023-02-23T00:06:30;101112.53;;;7.00;53.95
63306;BME280;50735;52.060;1.248;2023-02-23T00:08:58;101112.36;;;6.79;54.00
63306;BME280;50735;52.060;1.248;2023-02-23T00:11:24;101115.67;;;6.96;54.04
63306;BME280;50735;52.060;1.248;2023-02-23T00:13:51;101114.24;;;6.97;53.99
63306;BME280;50735;52.060;1.248;2023-02-23T00:16:20;101114.28;;;6.91;54.11
63306;BME280;50735;52.060;1.248;2023-02-23T00:18:49;101114.86;;;6.77;54.26
63306;BME280;50735;52.060;1.248;2023-02-23T00:21:18;101116.58;;;6.57;54.40
63306;BME280;50735;52.060;1.248;2023-02-23T00:23:49;101120.00;;;6.79;54.38
63306;BME280;50735;52.060;1.248;2023-02-23T00:26:16;101122.34;;;6.77;54.31
63306;BME280;50735;52.060;1.248;2023-02-23T00:28:43;101119.72;;;6.74;54.64
63306;BME280;50735;52.060;1.248;2023-02-23T00:31:11;101120.26;;;6.74;54.58
63306;BME280;50735;52.060;1.248;2023-02-23T00:33:37;101121.77;;;6.76;54.58
63306;BME280;50735;52.060;1.248;2023-02-23T00:36:06;101122.60;;;6.75;54.71
63306;BME280;50735;52.060;1.248;2023-02-23T00:38:34;101123.88;;;6.52;54.72
63306;BME280;50735;52.060;1.248;2023-02-23T00:41:06;101124.58;;;6.42;54.74
63306;BME280;50735;52.060;1.248;2023-02-23T00:43:35;101122.69;;;6.56;54.82
63306;BME280;50735;52.060;1.248;2023-02-23T00:46:03;101118.34;;;6.19;54.83
63306;BME280;50735;52.060;1.248;2023-02-23T00:48:31;101118.29;;;6.30;54.96
63306;BME280;50735;52.060;1.248;2023-02-23T00:50:59;101120.14;;;6.46;55.29
63306;BME280;50735;52.060;1.248;2023-02-23T00:53:26;101121.34;;;6.23;55.29
63306;BME280;50735;52.060;1.248;2023-02-23T00:55:53;101120.90;;;6.21;55.37
63306;BME280;50735;52.060;1.248;2023-02-23T00:58:20;101124.58;;;6.18;55.36
63306;BME280;50735;52.060;1.248;2023-02-23T01:00:47;101125.59;;;6.16;55.43
63306;BME280;50735;52.060;1.248;2023-02-23T01:03:13;101125.55;;;6.29;55.82
63306;BME280;50735;52.060;1.248;2023-02-23T01:05:40;101127.71;;;6.29;55.83
63306;BME280;50735;52.060;1.248;2023-02-23T01:08:08;101133.17;;;6.27;56.02
63306;BME280;50735;52.060;1.248;2023-02-23T01:10:38;101137.55;;;6.31;56.04
63306;BME280;50735;52.060;1.248;2023-02-23T01:13:05;101141.51;;;6.30;56.27
63306;BME280;50735;52.060;1.248;2023-02-23T01:15:31;101143.07;;;6.34;56.38
63306;BME280;50735;52.060;1.248;2023-02-23T01:17:58;101145.97;;;6.27;56.62
63306;BME280;50735;52.060;1.248;2023-02-23T01:20:25;101146.14;;;6.34;56.71
63306;BME280;50735;52.060;1.248;2023-02-23T01:22:51;101148.10;;;6.25;56.72
63306;BME280;50735;52.060;1.248;2023-02-23T01:25:19;101148.41;;;6.28;56.95
63306;BME280;50735;52.060;1.248;2023-02-23T01:27:45;101148.74;;;6.33;56.95
63306;BME280;50735;52.060;1.248;2023-02-23T01:30:14;101145.58;;;6.38;56.71
63306;BME280;50735;52.060;1.248;2023-02-23T01:32:40;101144.14;;;6.38;56.98
63306;BME280;50735;52.060;1.248;2023-02-23T01:35:09;101142.02;;;6.31;57.08
63306;BME280;50735;52.060;1.248;2023-02-23T01:37:38;101143.46;;;6.21;57.39
63306;BME280;50735;52.060;1.248;2023-02-23T01:40:07;101145.75;;;6.29;57.41
63306;BME280;50735;52.060;1.248;2023-02-23T01:42:36;101144.10;;;6.19;57.30
63306;BME280;50735;52.060;1.248;2023-02-23T01:45:23;101145.69;;;6.44;57.14
63306;BME280;50735;52.060;1.248;2023-02-23T01:47:51;101145.29;;;6.47;57.01
63306;BME280;50735;52.060;1.248;2023-02-23T01:50:18;101144.42;;;6.23;56.88
63306;BME280;50735;52.060;1.248;2023-02-23T01:52:45;101141.71;;;6.41;56.96
63306;BME280;50735;52.060;1.248;2023-02-23T01:55:14;101144.69;;;6.21;56.55
63306;BME280;50735;52.060;1.248;2023-02-23T01:57:41;101145.71;;;6.13;56.82
63306;BME280;50735;52.060;1.248;2023-02-23T02:00:09;101145.84;;;6.29;56.82
63306;BME280;50735;52.060;1.248;2023-02-23T02:02:36;101147.82;;;6.28;56.92
63306;BME280;50735;52.060;1.248;2023-02-23T02:05:04;101146.30;;;6.08;56.92
63306;BME280;50735;52.060;1.248;2023-02-23T02:07:32;101143.41;;;6.32;56.93
63306;BME280;50735;52.060;1.248;2023-02-23T02:10:00;101149.42;;;6.38;56.50
63306;BME280;50735;52.060;1.248;2023-02-23T02:12:27;101150.46;;;6.30;56.93
63306;BME280;50735;52.060;1.248;2023-02-23T02:14:54;101156.56;;;6.11;56.96
63306;BME280;50735;52.060;1.248;2023-02-23T02:17:31;101156.12;;;6.08;57.14
63306;BME280;50735;52.060;1.248;2023-02-23T02:20:51;101158.17;;;6.07;57.31
63306;BME280;50735;52.060;1.248;2023-02-23T02:23:58;101156.37;;;6.08;57.31
63306;BME280;50735;52.060;1.248;2023-02-23T02:26:35;101154.09;;;6.28;57.58
63306;BME280;50735;52.060;1.248;2023-02-23T02:29:46;101155.46;;;6.34;57.50
63306;BME280;50735;52.060;1.248;2023-02-23T02:33:01;101154.42;;;6.16;57.69
63306;BME280;50735;52.060;1.248;2023-02-23T02:35:44;101151.26;;;6.41;57.57
63306;BME280;50735;52.060;1.248;2023-02-23T02:38:25;101147.87;;;6.41;57.72
63306;BME280;50735;52.060;1.248;2023-02-23T02:41:03;101142.23;;;6.40;57.76
63306;BME280;50735;52.060;1.248;2023-02-23T02:43:37;101138.99;;;6.41;57.87
63306;BME280;50735;52.060;1.248;2023-02-23T02:46:13;101135.13;;;6.36;58.02
63306;BME280;50735;52.060;1.248;2023-02-23T02:48:47;101133.42;;;6.36;58.12
63306;BME280;50735;52.060;1.248;2023-02-23T02:51:20;101132.37;;;6.16;57.87
63306;BME280;50735;52.060;1.248;2023-02-23T02:53:54;101132.22;;;6.18;58.55
63306;BME280;50735;52.060;1.248;2023-02-23T02:56:26;101134.65;;;5.93;58.66
63306;BME280;50735;52.060;1.248;2023-02-23T02:58:54;101139.84;;;6.14;58.56
63306;BME280;50735;52.060;1.248;2023-02-23T03:01:21;101141.27;;;5.83;59.11
63306;BME280;50735;52.060;1.248;2023-02-23T03:03:48;101141.51;;;5.92;59.01
63306;BME280;50735;52.060;1.248;2023-02-23T03:06:15;101142.69;;;6.04;58.74
63306;BME280;50735;52.060;1.248;2023-02-23T03:08:47;101145.23;;;6.13;58.53
63306;BME280;50735;52.060;1.248;2023-02-23T03:11:16;101140.84;;;6.37;58.57
63306;BME280;50735;52.060;1.248;2023-02-23T03:13:51;101138.07;;;6.41;58.29
63306;BME280;50735;52.060;1.248;2023-02-23T03:16:28;101135.97;;;6.43;58.62
63306;BME280;50735;52.060;1.248;2023-02-23T03:19:09;101138.28;;;6.37;58.72
63306;BME280;50735;52.060;1.248;2023-02-23T03:21:46;101143.80;;;6.42;58.77
63306;BME280;50735;52.060;1.248;2023-02-23T03:24:20;101136.88;;;6.14;58.76
63306;BME280;50735;52.060;1.248;2023-02-23T03:26:52;101134.92;;;6.07;59.13
63306;BME280;50735;52.060;1.248;2023-02-23T03:29:28;101130.98;;;6.05;58.97
63306;BME280;50735;52.060;1.248;2023-02-23T03:32:05;101133.70;;;6.30;59.06
63306;BME280;50735;52.060;1.248;2023-02-23T03:34:36;101136.75;;;5.87;59.74
63306;BME280;50735;52.060;1.248;2023-02-23T03:37:10;101136.85;;;6.13;59.43
63306;BME280;50735;52.060;1.248;2023-02-23T03:39:44;101142.17;;;5.87;59.75
63306;BME280;50735;52.060;1.248;2023-02-23T03:42:18;101145.02;;;6.22;59.37
63306;BME280;50735;52.060;1.248;2023-02-23T03:44:47;101149.53;;;6.30;59.27
63306;BME280;50735;52.060;1.248;2023-02-23T03:47:16;101148.13;;;6.04;59.26
63306;BME280;50735;52.060;1.248;2023-02-23T03:49:46;101150.12;;;6.01;59.17
63306;BME280;50735;52.060;1.248;2023-02-23T03:52:17;101150.29;;;6.10;59.05
63306;BME280;50735;52.060;1.248;2023-02-23T03:54:50;101154.84;;;6.39;58.74
63306;BME280;50735;52.060;1.248;2023-02-23T03:57:20;101156.20;;;6.29;59.21
63306;BME280;50735;52.060;1.248;2023-02-23T03:59:52;101159.88;;;6.15;59.00
63306;BME280;50735;52.060;1.248;2023-02-23T04:02:22;101165.03;;;6.22;58.77
63306;BME280;50735;52.060;1.248;2023-02-23T04:04:51;101169.47;;;6.54;58.44
63306;BME280;50735;52.060;1.248;2023-02-23T04:07:21;101170.62;;;6.34;58.46
63306;BME280;50735;52.060;1.248;2023-02-23T04:09:48;101171.54;;;6.36;58.42
63306;BME280;50735;52.060;1.248;2023-02-23T04:12:19;101173.35;;;6.64;58.39
63306;BME280;50735;52.060;1.248;2023-02-23T04:14:50;101173.76;;;6.33;58.62
63306;BME280;50735;52.060;1.248;2023-02-23T04:17:22;101175.46;;;6.37;58.42
63306;BME280;50735;52.060;1.248;2023-02-23T04:19:52;101177.60;;;6.67;58.39
63306;BME280;50735;52.060;1.248;2023-02-23T04:22:19;101177.81;;;6.48;58.51
63306;BME280;50735;52.060;1.248;2023-02-23T04:24:47;101183.24;;;6.73;58.42
63306;BME280;50735;52.060;1.248;2023-02-23T04:27:16;101186.89;;;6.50;58.35
63306;BME280;50735;52.060;1.248;2023-02-23T04:29:43;101190.68;;;6.70;58.27
63306;BME280;50735;52.060;1.248;2023-02-23T04:32:12;101192.13;;;6.71;58.46
63306;BME280;50735;52.060;1.248;2023-02-23T04:34:40;101196.90;;;6.50;58.58
63306;BME280;50735;52.060;1.248;2023-02-23T04:37:07;101196.12;;;6.54;58.46
63306;BME280;50735;52.060;1.248;2023-02-23T04:39:33;101198.28;;;6.50;58.35
63306;BME280;50735;52.060;1.248;2023-02-23T04:42:00;101201.83;;;6.21;58.91
63306;BME280;50735;52.060;1.248;2023-02-23T04:44:27;101201.22;;;6.29;59.31
63306;BME280;50735;52.060;1.248;2023-02-23T04:46:55;101203.14;;;6.32;59.34
63306;BME280;50735;52.060;1.248;2023-02-23T04:49:22;101201.80;;;6.33;59.31
63306;BME280;50735;52.060;1.248;2023-02-23T04:51:49;101208.83;;;6.10;60.71
63306;BME280;50735;52.060;1.248;2023-02-23T04:54:16;101206.71;;;5.95;59.99
63306;BME280;50735;52.060;1.248;2023-02-23T04:56:42;101208.12;;;6.18;59.97
63306;BME280;50735;52.060;1.248;2023-02-23T04:59:09;101203.20;;;6.55;59.41
63306;BME280;50735;52.060;1.248;2023-02-23T05:01:36;101205.68;;;6.28;59.15
63306;BME280;50735;52.060;1.248;2023-02-23T05:04:03;101207.26;;;6.46;59.10
63306;BME280;50735;52.060;1.248;2023-02-23T05:06:30;101208.20;;;6.38;58.93
63306;BME280;50735;52.060;1.248;2023-02-23T05:08:57;101209.24;;;6.53;59.00
63306;BME280;50735;52.060;1.248;2023-02-23T05:11:24;101211.30;;;6.58;58.83
63306;BME280;50735;52.060;1.248;2023-02-23T05:13:51;101214.18;;;6.38;58.80
63306;BME280;50735;52.060;1.248;2023-02-23T05:16:17;101213.70;;;6.62;58.73
63306;BME280;50735;52.060;1.248;2023-02-23T05:18:44;101215.91;;;6.41;58.79
63306;BME280;50735;52.060;1.248;2023-02-23T05:21:10;101220.63;;;6.51;58.99
63306;BME280;50735;52.060;1.248;2023-02-23T05:23:37;101225.74;;;6.53;59.07
63306;BME280;50735;52.060;1.248;2023-02-23T05:26:07;101227.61;;;6.32;59.30
63306;BME280;50735;52.060;1.248;2023-02-23T05:28:36;101237.89;;;6.39;60.00
63306;BME280;50735;52.060;1.248;2023-02-23T05:31:04;101235.69;;;6.41;60.23
63306;BME280;50735;52.060;1.248;2023-02-23T05:33:31;101237.05;;;6.50;60.12
63306;BME280;50735;52.060;1.248;2023-02-23T05:35:59;101237.88;;;6.36;60.42
63306;BME280;50735;52.060;1.248;2023-02-23T05:38:26;101241.34;;;6.34;60.50
63306;BME280;50735;52.060;1.248;2023-02-23T05:40:52;101244.16;;;6.31;60.32
63306;BME280;50735;52.060;1.248;2023-02-23T05:43:19;101243.96;;;6.52;60.16
63306;BME280;50735;52.060;1.248;2023-02-23T05:45:46;101242.30;;;6.52;60.31
63306;BME280;50735;52.060;1.248;2023-02-23T05:48:12;101245.80;;;6.21;60.52
63306;BME280;50735;52.060;1.248;2023-02-23T05:50:39;101248.16;;;6.33;61.06
63306;BME280;50735;52.060;1.248;2023-02-23T05:53:06;101251.54;;;6.11;61.06
63306;BME280;50735;52.060;1.248;2023-02-23T05:55:32;101256.13;;;6.28;60.93
63306;BME280;50735;52.060;1.248;2023-02-23T05:57:59;101261.83;;;6.26;61.15
63306;BME280;50735;52.060;1.248;2023-02-23T06:00:25;101264.13;;;6.30;61.19
63306;BME280;50735;52.060;1.248;2023-02-23T06:02:52;101265.35;;;6.09;61.63
63306;BME280;50735;52.060;1.248;2023-02-23T06:05:19;101266.15;;;6.34;61.44
63306;BME280;50735;52.060;1.248;2023-02-23T06:07:45;101266.69;;;6.22;61.25
63306;BME280;50735;52.060;1.248;2023-02-23T06:10:12;101268.50;;;6.43;60.72
63306;BME280;50735;52.060;1.248;2023-02-23T06:12:40;101269.71;;;6.52;60.58
63306;BME280;50735;52.060;1.248;2023-02-23T06:15:07;101274.66;;;6.39;60.38
63306;BME280;50735;52.060;1.248;2023-02-23T06:17:34;101276.99;;;6.25;61.12
63306;BME280;50735;52.060;1.248;2023-02-23T06:20:00;101279.79;;;6.07;61.61
63306;BME280;50735;52.060;1.248;2023-02-23T06:22:27;101281.53;;;6.02;61.68
63306;BME280;50735;52.060;1.248;2023-02-23T06:24:54;101284.42;;;5.98;61.72
63306;BME280;50735;52.060;1.248;2023-02-23T06:27:20;101290.09;;;6.00;62.13
63306;BME280;50735;52.060;1.248;2023-02-23T06:29:47;101297.41;;;5.82;61.99
63306;BME280;50735;52.060;1.248;2023-02-23T06:32:14;101304.29;;;5.86;62.36
63306;BME280;50735;52.060;1.248;2023-02-23T06:34:40;101303.84;;;5.82;62.51
63306;BME280;50735;52.060;1.248;2023-02-23T06:37:07;101307.82;;;5.53;62.85
63306;BME280;50735;52.060;1.248;2023-02-23T06:39:34;101312.25;;;5.47;63.51
63306;BME280;50735;52.060;1.248;2023-02-23T06:42:00;101315.33;;;5.60;62.91
63306;BME280;50735;52.060;1.248;2023-02-23T06:44:27;101315.47;;;5.95;62.96
63306;BME280;50735;52.060;1.248;2023-02-23T06:46:54;101318.40;;;6.14;62.48
63306;BME280;50735;52.060;1.248;2023-02-23T06:49:20;101322.40;;;5.71;63.88
63306;BME280;50735;52.060;1.248;2023-02-23T06:51:47;101326.37;;;5.49;63.93
63306;BME280;50735;52.060;1.248;2023-02-23T06:54:14;101326.94;;;5.46;63.59
63306;BME280;50735;52.060;1.248;2023-02-23T06:56:40;101332.85;;;5.58;63.38
63306;BME280;50735;52.060;1.248;2023-02-23T06:59:07;101339.98;;;5.72;63.60
63306;BME280;50735;52.060;1.248;2023-02-23T07:01:34;101346.61;;;5.59;63.32
63306;BME280;50735;52.060;1.248;2023-02-23T07:04:01;101354.46;;;5.75;62.82
63306;BME280;50735;52.060;1.248;2023-02-23T07:06:28;101348.89;;;5.50;64.60
63306;BME280;50735;52.060;1.248;2023-02-23T07:08:56;101349.34;;;5.48;63.84
63306;BME280;50735;52.060;1.248;2023-02-23T07:11:23;101352.84;;;5.37;65.08
63306;BME280;50735;52.060;1.248;2023-02-23T07:13:49;101357.51;;;5.23;65.19
63306;BME280;50735;52.060;1.248;2023-02-23T07:16:16;101355.71;;;4.89;66.20
63306;BME280;50735;52.060;1.248;2023-02-23T07:18:43;101359.25;;;4.91;64.82
63306;BME280;50735;52.060;1.248;2023-02-23T07:21:09;101363.97;;;5.12;64.86
63306;BME280;50735;52.060;1.248;2023-02-23T07:23:36;101368.67;;;4.87;65.31
63306;BME280;50735;52.060;1.248;2023-02-23T07:26:03;101376.92;;;5.33;64.77
63306;BME280;50735;52.060;1.248;2023-02-23T07:28:29;101381.27;;;4.94;65.52
63306;BME280;50735;52.060;1.248;2023-02-23T07:30:56;101379.98;;;5.01;65.74
63306;BME280;50735;52.060;1.248;2023-02-23T07:33:24;101387.82;;;4.48;67.02
63306;BME280;50735;52.060;1.248;2023-02-23T07:35:51;101394.10;;;4.85;66.49
63306;BME280;50735;52.060;1.248;2023-02-23T07:38:18;101400.46;;;5.37;65.13
63306;BME280;50735;52.060;1.248;2023-02-23T07:40:45;101407.99;;;5.33;65.33
63306;BME280;50735;52.060;1.248;2023-02-23T07:43:12;101414.78;;;5.40;64.43
63306;BME280;50735;52.060;1.248;2023-02-23T07:45:38;101420.55;;;5.45;64.38
63306;BME280;50735;52.060;1.248;2023-02-23T07:48:05;101428.90;;;4.92;65.94
63306;BME280;50735;52.060;1.248;2023-02-23T07:50:33;101432.84;;;4.38;67.12
63306;BME280;50735;52.060;1.248;2023-02-23T07:52:59;101434.34;;;4.35;66.99
63306;BME280;50735;52.060;1.248;2023-02-23T07:55:26;101438.97;;;4.38;67.07
63306;BME280;50735;52.060;1.248;2023-02-23T07:57:53;101443.71;;;4.45;66.56
63306;BME280;50735;52.060;1.248;2023-02-23T08:00:20;101449.03;;;4.24;66.21
63306;BME280;50735;52.060;1.248;2023-02-23T08:02:47;101452.38;;;4.27;66.85
63306;BME280;50735;52.060;1.248;2023-02-23T08:05:13;101455.56;;;4.45;65.98
63306;BME280;50735;52.060;1.248;2023-02-23T08:07:41;101458.57;;;4.31;65.97
63306;BME280;50735;52.060;1.248;2023-02-23T08:10:09;101462.88;;;4.74;64.80
63306;BME280;50735;52.060;1.248;2023-02-23T08:12:36;101463.56;;;4.70;65.15
63306;BME280;50735;52.060;1.248;2023-02-23T08:15:04;101459.47;;;4.28;66.43
63306;BME280;50735;52.060;1.248;2023-02-23T08:17:31;101462.51;;;4.16;66.24
63306;BME280;50735;52.060;1.248;2023-02-23T08:19:58;101458.76;;;4.37;65.91
63306;BME280;50735;52.060;1.248;2023-02-23T08:22:25;101463.65;;;4.50;65.41
63306;BME280;50735;52.060;1.248;2023-02-23T08:24:51;101466.58;;;4.19;66.69
63306;BME280;50735;52.060;1.248;2023-02-23T08:27:19;101465.17;;;3.81;66.74
63306;BME280;50735;52.060;1.248;2023-02-23T08:29:45;101469.51;;;3.84;67.26
63306;BME280;50735;52.060;1.248;2023-02-23T08:32:12;101473.31;;;4.63;65.68
63306;BME280;50735;52.060;1.248;2023-02-23T08:34:40;101474.55;;;4.30;66.40
63306;BME280;50735;52.060;1.248;2023-02-23T08:37:07;101485.80;;;4.52;65.70
63306;BME280;50735;52.060;1.248;2023-02-23T08:39:34;101489.81;;;4.52;65.95
63306;BME280;50735;52.060;1.248;2023-02-23T08:42:00;101492.16;;;4.58;64.88
63306;BME280;50735;52.060;1.248;2023-02-23T08:44:27;101492.38;;;4.98;64.26
63306;BME280;50735;52.060;1.248;2023-02-23T08:46:54;101495.22;;;4.59;64.62
63306;BME280;50735;52.060;1.248;2023-02-23T08:49:21;101496.19;;;4.83;64.92
63306;BME280;50735;52.060;1.248;2023-02-23T08:51:49;101495.10;;;5.01;64.38
63306;BME280;50735;52.060;1.248;2023-02-23T08:54:16;101487.72;;;4.81;64.63
63306;BME280;50735;52.060;1.248;2023-02-23T08:56:43;101496.29;;;4.85;63.87
63306;BME280;50735;52.060;1.248;2023-02-23T08:59:11;101503.58;;;5.00;63.62
63306;BME280;50735;52.060;1.248;2023-02-23T09:01:39;101508.53;;;5.02;63.76
63306;BME280;50735;52.060;1.248;2023-02-23T09:04:06;101510.03;;;5.38;62.77
63306;BME280;50735;52.060;1.248;2023-02-23T09:06:32;101508.92;;;5.56;62.09
63306;BME280;50735;52.060;1.248;2023-02-23T09:08:59;101509.40;;;6.17;60.73
63306;BME280;50735;52.060;1.248;2023-02-23T09:11:27;101520.31;;;5.87;61.47
63306;BME280;50735;52.060;1.248;2023-02-23T09:13:54;101525.63;;;4.96;63.09
63306;BME280;50735;52.060;1.248;2023-02-23T09:16:21;101538.40;;;5.18;63.24
63306;BME280;50735;52.060;1.248;2023-02-23T09:18:47;101546.07;;;5.30;63.57
63306;BME280;50735;52.060;1.248;2023-02-23T09:21:16;101540.28;;;5.54;62.48
63306;BME280;50735;52.060;1.248;2023-02-23T09:23:44;101549.37;;;5.20;63.50
63306;BME280;50735;52.060;1.248;2023-02-23T09:26:10;101553.21;;;5.36;63.63
63306;BME280;50735;52.060;1.248;2023-02-23T09:28:37;101556.41;;;4.85;64.31
63306;BME280;50735;52.060;1.248;2023-02-23T09:31:05;101560.30;;;5.24;64.45
63306;BME280;50735;52.060;1.248;2023-02-23T09:33:32;101557.80;;;5.44;65.14
63306;BME280;50735;52.060;1.248;2023-02-23T09:35:58;101564.05;;;5.69;63.07
63306;BME280;50735;52.060;1.248;2023-02-23T09:38:25;101571.46;;;5.49;63.79
63306;BME280;50735;52.060;1.248;2023-02-23T09:40:54;101572.57;;;5.67;62.97
63306;BME280;50735;52.060;1.248;2023-02-23T09:43:29;101572.07;;;5.63;62.81
63306;BME280;50735;52.060;1.248;2023-02-23T09:46:04;101570.47;;;5.10;64.21
63306;BME280;50735;52.060;1.248;2023-02-23T09:48:33;101570.84;;;5.20;64.77
63306;BME280;50735;52.060;1.248;2023-02-23T09:51:01;101567.64;;;5.61;63.89
63306;BME280;50735;52.060;1.248;2023-02-23T09:53:35;101571.25;;;5.63;63.63
63306;BME280;50735;52.060;1.248;2023-02-23T09:56:07;101573.88;;;5.72;63.65
63306;BME280;50735;52.060;1.248;2023-02-23T09:58:37;101571.74;;;5.98;62.93
63306;BME280;50735;52.060;1.248;2023-02-23T10:01:16;101568.12;;;5.14;63.62
63306;BME280;50735;52.060;1.248;2023-02-23T10:03:50;101576.44;;;5.29;63.65
63306;BME280;50735;52.060;1.248;2023-02-23T10:06:20;101579.90;;;5.58;62.70
63306;BME280;50735;52.060;1.248;2023-02-23T10:08:56;101584.14;;;5.20;63.41
63306;BME280;50735;52.060;1.248;2023-02-23T10:11:33;101581.43;;;5.45;63.23
63306;BME280;50735;52.060;1.248;2023-02-23T10:14:15;101580.88;;;5.54;62.93
63306;BME280;50735;52.060;1.248;2023-02-23T10:16:54;101585.90;;;5.84;61.92
63306;BME280;50735;52.060;1.248;2023-02-23T10:19:30;101591.77;;;5.07;62.16
63306;BME280;50735;52.060;1.248;2023-02-23T10:22:02;101598.67;;;5.37;62.45
63306;BME280;50735;52.060;1.248;2023-02-23T10:24:33;101598.33;;;5.51;61.94
63306;BME280;50735;52.060;1.248;2023-02-23T10:27:07;101596.14;;;5.56;62.09
63306;BME280;50735;52.060;1.248;2023-02-23T10:29:40;101602.37;;;5.54;61.94
63306;BME280;50735;52.060;1.248;2023-02-23T10:32:14;101602.73;;;5.82;61.80
63306;BME280;50735;52.060;1.248;2023-02-23T10:34:45;101605.27;;;5.51;62.48
63306;BME280;50735;52.060;1.248;2023-02-23T10:37:13;101602.39;;;5.80;61.72
63306;BME280;50735;52.060;1.248;2023-02-23T10:39:42;101605.69;;;5.74;62.19
63306;BME280;50735;52.060;1.248;2023-02-23T10:42:14;101604.04;;;5.54;62.30
63306;BME280;50735;52.060;1.248;2023-02-23T10:44:43;101606.56;;;5.48;62.53
63306;BME280;50735;52.060;1.248;2023-02-23T10:47:14;101610.46;;;5.64;61.59
63306;BME280;50735;52.060;1.248;2023-02-23T10:49:44;101614.56;;;6.07;61.02
63306;BME280;50735;52.060;1.248;2023-02-23T10:52:14;101623.29;;;5.47;63.29
63306;BME280;50735;52.060;1.248;2023-02-23T10:54:44;101628.86;;;4.88;64.73
63306;BME280;50735;52.060;1.248;2023-02-23T10:57:18;101627.83;;;4.68;66.14
63306;BME280;50735;52.060;1.248;2023-02-23T10:59:59;101632.81;;;4.22;66.86
63306;BME280;50735;52.060;1.248;2023-02-23T11:02:27;101633.05;;;4.76;65.61
63306;BME280;50735;52.060;1.248;2023-02-23T11:04:58;101642.08;;;5.16;65.60
63306;BME280;50735;52.060;1.248;2023-02-23T11:07:28;101634.68;;;4.56;66.51
63306;BME280;50735;52.060;1.248;2023-02-23T11:09:55;101637.95;;;5.14;65.03
63306;BME280;50735;52.060;1.248;2023-02-23T11:12:24;101636.26;;;5.85;64.51
63306;BME280;50735;52.060;1.248;2023-02-23T11:14:52;101640.00;;;5.22;64.44
63306;BME280;50735;52.060;1.248;2023-02-23T11:17:26;101639.85;;;5.55;64.14
63306;BME280;50735;52.060;1.248;2023-02-23T11:19:57;101642.28;;;6.16;65.34
63306;BME280;50735;52.060;1.248;2023-02-23T11:22:30;101640.06;;;6.54;62.89
63306;BME280;50735;52.060;1.248;2023-02-23T11:24:57;101635.86;;;6.22;62.24
63306;BME280;50735;52.060;1.248;2023-02-23T11:27:26;101634.82;;;6.30;61.55
63306;BME280;50735;52.060;1.248;2023-02-23T11:29:55;101636.72;;;6.96;59.64
63306;BME280;50735;52.060;1.248;2023-02-23T11:32:28;101632.58;;;7.26;58.26
63306;BME280;50735;52.060;1.248;2023-02-23T11:35:30;101641.88;;;6.31;58.55
63306;BME280;50735;52.060;1.248;2023-02-23T11:37:57;101641.45;;;6.81;57.92
63306;BME280;50735;52.060;1.248;2023-02-23T11:40:26;101640.84;;;6.17;59.66
63306;BME280;50735;52.060;1.248;2023-02-23T11:42:57;101637.30;;;6.04;59.89
63306;BME280;50735;52.060;1.248;2023-02-23T11:45:36;101635.99;;;5.09;60.79
63306;BME280;50735;52.060;1.248;2023-02-23T11:48:04;101635.61;;;5.43;60.97
63306;BME280;50735;52.060;1.248;2023-02-23T11:50:34;101638.80;;;5.33;61.21
63306;BME280;50735;52.060;1.248;2023-02-23T11:53:03;101635.11;;;4.99;61.11
63306;BME280;50735;52.060;1.248;2023-02-23T11:55:32;101636.78;;;5.39;60.99
63306;BME280;50735;52.060;1.248;2023-02-23T11:58:22;101635.42;;;5.56;60.97
63306;BME280;50735;52.060;1.248;2023-02-23T12:00:58;101629.54;;;5.20;59.80
63306;BME280;50735;52.060;1.248;2023-02-23T12:03:29;101623.44;;;5.61;60.36
63306;BME280;50735;52.060;1.248;2023-02-23T12:05:58;101619.84;;;5.94;60.29
63306;BME280;50735;52.060;1.248;2023-02-23T12:08:34;101620.08;;;7.08;58.55
63306;BME280;50735;52.060;1.248;2023-02-23T12:11:06;101613.28;;;7.19;57.56
63306;BME280;50735;52.060;1.248;2023-02-23T12:13:40;101612.35;;;7.29;56.26
63306;BME280;50735;52.060;1.248;2023-02-23T12:16:13;101617.64;;;7.98;54.59
63306;BME280;50735;52.060;1.248;2023-02-23T12:18:47;101617.10;;;8.22;53.88
63306;BME280;50735;52.060;1.248;2023-02-23T12:21:23;101612.81;;;8.86;52.04
63306;BME280;50735;52.060;1.248;2023-02-23T12:24:01;101609.98;;;9.11;51.38
63306;BME280;50735;52.060;1.248;2023-02-23T12:26:30;101610.58;;;8.80;50.81
63306;BME280;50735;52.060;1.248;2023-02-23T12:29:03;101607.20;;;7.87;51.61
63306;BME280;50735;52.060;1.248;2023-02-23T12:31:36;101608.87;;;7.41;52.09
63306;BME280;50735;52.060;1.248;2023-02-23T12:34:14;101614.05;;;7.12;52.16
63306;BME280;50735;52.060;1.248;2023-02-23T12:36:46;101617.42;;;6.84;53.02
63306;BME280;50735;52.060;1.248;2023-02-23T12:39:21;101623.28;;;7.00;54.05
63306;BME280;50735;52.060;1.248;2023-02-23T12:42:00;101627.61;;;7.95;52.17
63306;BME280;50735;52.060;1.248;2023-02-23T12:44:35;101627.35;;;6.88;53.39
63306;BME280;50735;52.060;1.248;2023-02-23T12:47:11;101630.06;;;6.71;55.11
63306;BME280;50735;52.060;1.248;2023-02-23T12:49:43;101638.13;;;7.05;53.75
63306;BME280;50735;52.060;1.248;2023-02-23T12:52:16;101639.25;;;6.30;55.79
63306;BME280;50735;52.060;1.248;2023-02-23T12:54:45;101642.72;;;6.64;55.11
63306;BME280;50735;52.060;1.248;2023-02-23T12:57:20;101639.40;;;6.44;54.92
63306;BME280;50735;52.060;1.248;2023-02-23T12:59:57;101635.06;;;6.69;54.90
63306;BME280;50735;52.060;1.248;2023-02-23T13:02:32;101635.18;;;6.47;54.52
63306;BME280;50735;52.060;1.248;2023-02-23T13:05:12;101640.50;;;6.48;55.91
63306;BME280;50735;52.060;1.248;2023-02-23T13:07:48;101643.32;;;6.82;54.89
63306;BME280;50735;52.060;1.248;2023-02-23T13:10:25;101641.95;;;6.78;53.89
63306;BME280;50735;52.060;1.248;2023-02-23T13:13:04;101639.06;;;6.54;54.38
63306;BME280;50735;52.060;1.248;2023-02-23T13:15:45;101638.93;;;6.71;54.85